sensor_id;sensor_type;location;lat;lon;timestamp;P1;durP1;ratioP1;P2;durP2;ratioP2
74715;SDS011;63234;37.558;127.058;2022-09-09T00:04:35;4.25;;;3.08;;
74715;SDS011;63234;37.558;127.058;2022-09-09T00:07:05;4.03;;;2.75;;
74715;SDS011;63234;37.558;127.058;2022-09-09T00:10:00;3.78;;;2.90;;
74715;SDS011;63234;37.558;127.058;2022-09-09T00:12:54;4.43;;;2.80;;
74715;SDS011;63234;37.558;127.058;2022-09-09T00:15:26;3.72;;;2.92;;
74715;SDS011;63234;37.558;127.058;2022-09-09T00:23:40;3.40;;;2.75;;
74715;SDS011;63234;37.558;127.058;2022-09-09T00:31:33;4.40;;;3.10;;
74715;SDS011;63234;37.558;127.058;2022-09-09T00:34:21;5.35;;;3.15;;
74715;SDS011;63234;37.558;127.058;2022-09-09T00:36:47;4.10;;;2.80;;
74715;SDS011;63234;37.558;127.058;2022-09-09T00:39:31;4.32;;;2.78;;
74715;SDS011;63234;37.558;127.058;2022-09-09T00:42:18;3.72;;;2.83;;
74715;SDS011;63234;37.558;127.058;2022-09-09T00:45:02;5.18;;;2.60;;
74715;SDS011;63234;37.558;127.058;2022-09-09T00:53:19;5.70;;;2.80;;
74715;SDS011;63234;37.558;127.058;2022-09-09T00:58:31;5.00;;;2.80;;
74715;SDS011;63234;37.558;127.058;2022-09-09T01:01:11;3.33;;;2.55;;
74715;SDS011;63234;37.558;127.058;2022-09-09T01:08:59;3.75;;;2.65;;
74715;SDS011;63234;37.558;127.058;2022-09-09T01:14:01;6.38;;;2.90;;
74715;SDS011;63234;37.558;127.058;2022-09-09T01:16:50;6.35;;;3.05;;
74715;SDS011;63234;37.558;127.058;2022-09-09T01:19:30;3.58;;;2.75;;
74715;SDS011;63234;37.558;127.058;2022-09-09T01:22:15;4.10;;;2.85;;
74715;SDS011;63234;37.558;127.058;2022-09-09T01:27:43;4.07;;;2.97;;
74715;SDS011;63234;37.558;127.058;2022-09-09T01:30:11;4.47;;;2.88;;
74715;SDS011;63234;37.558;127.058;2022-09-09T01:35:13;4.78;;;2.78;;
74715;SDS011;63234;37.558;127.058;2022-09-09T01:37:44;4.05;;;2.75;;
74715;SDS011;63234;37.558;127.058;2022-09-09T01:40:10;4.00;;;2.70;;
74715;SDS011;63234;37.558;127.058;2022-09-09T01:42:35;4.70;;;2.60;;
74715;SDS011;63234;37.558;127.058;2022-09-09T01:45:01;4.93;;;2.90;;
74715;SDS011;63234;37.558;127.058;2022-09-09T01:47:26;3.38;;;2.50;;
74715;SDS011;63234;37.558;127.058;2022-09-09T01:49:52;3.05;;;2.45;;
74715;SDS011;63234;37.558;127.058;2022-09-09T01:52:17;3.67;;;2.80;;
74715;SDS011;63234;37.558;127.058;2022-09-09T01:54:42;3.60;;;2.50;;
74715;SDS011;63234;37.558;127.058;2022-09-09T01:59:52;4.45;;;2.85;;
74715;SDS011;63234;37.558;127.058;2022-09-09T02:05:11;6.70;;;3.22;;
74715;SDS011;63234;37.558;127.058;2022-09-09T02:07:50;4.32;;;2.58;;
74715;SDS011;63234;37.558;127.058;2022-09-09T02:10:28;4.22;;;2.70;;
74715;SDS011;63234;37.558;127.058;2022-09-09T02:13:02;4.45;;;2.63;;
74715;SDS011;63234;37.558;127.058;2022-09-09T02:18:11;3.47;;;2.90;;
74715;SDS011;63234;37.558;127.058;2022-09-09T02:20:39;4.10;;;2.90;;
74715;SDS011;63234;37.558;127.058;2022-09-09T02:23:08;3.63;;;2.60;;
74715;SDS011;63234;37.558;127.058;2022-09-09T02:25:36;4.40;;;2.85;;
74715;SDS011;63234;37.558;127.058;2022-09-09T02:28:03;4.57;;;2.65;;
74715;SDS011;63234;37.558;127.058;2022-09-09T02:30:32;2.83;;;2.38;;
74715;SDS011;63234;37.558;127.058;2022-09-09T02:33:00;3.50;;;2.72;;
74715;SDS011;63234;37.558;127.058;2022-09-09T02:35:28;3.97;;;2.53;;
74715;SDS011;63234;37.558;127.058;2022-09-09T02:37:58;3.35;;;2.40;;
74715;SDS011;63234;37.558;127.058;2022-09-09T02:40:27;2.58;;;2.30;;
74715;SDS011;63234;37.558;127.058;2022-09-09T02:42:53;5.20;;;2.92;;
74715;SDS011;63234;37.558;127.058;2022-09-09T02:45:20;3.00;;;2.47;;
74715;SDS011;63234;37.558;127.058;2022-09-09T02:53:20;4.13;;;2.80;;
74715;SDS011;63234;37.558;127.058;2022-09-09T02:55:51;3.05;;;2.45;;
74715;SDS011;63234;37.558;127.058;2022-09-09T02:58:28;3.58;;;2.53;;
74715;SDS011;63234;37.558;127.058;2022-09-09T03:00:53;4.28;;;2.35;;
74715;SDS011;63234;37.558;127.058;2022-09-09T03:03:18;4.82;;;2.50;;
74715;SDS011;63234;37.558;127.058;2022-09-09T03:05:45;3.17;;;2.40;;
74715;SDS011;63234;37.558;127.058;2022-09-09T03:08:11;3.63;;;2.58;;
74715;SDS011;63234;37.558;127.058;2022-09-09T03:10:38;3.58;;;2.30;;
74715;SDS011;63234;37.558;127.058;2022-09-09T03:13:03;3.85;;;2.55;;
74715;SDS011;63234;37.558;127.058;2022-09-09T03:15:30;3.55;;;2.42;;
74715;SDS011;63234;37.558;127.058;2022-09-09T03:17:56;5.95;;;2.50;;
74715;SDS011;63234;37.558;127.058;2022-09-09T03:20:26;3.95;;;2.70;;
74715;SDS011;63234;37.558;127.058;2022-09-09T03:22:53;2.95;;;2.30;;
74715;SDS011;63234;37.558;127.058;2022-09-09T03:25:19;3.25;;;2.28;;
74715;SDS011;63234;37.558;127.058;2022-09-09T03:27:45;3.63;;;2.72;;
74715;SDS011;63234;37.558;127.058;2022-09-09T03:30:10;3.67;;;2.35;;
74715;SDS011;63234;37.558;127.058;2022-09-09T03:32:36;3.22;;;2.25;;
74715;SDS011;63234;37.558;127.058;2022-09-09T03:35:01;3.30;;;2.35;;
74715;SDS011;63234;37.558;127.058;2022-09-09T03:37:27;3.40;;;2.30;;
74715;SDS011;63234;37.558;127.058;2022-09-09T03:39:52;3.47;;;2.78;;
74715;SDS011;63234;37.558;127.058;2022-09-09T03:42:19;2.78;;;2.30;;
74715;SDS011;63234;37.558;127.058;2022-09-09T03:44:45;3.20;;;2.30;;
74715;SDS011;63234;37.558;127.058;2022-09-09T03:47:18;3.47;;;2.30;;
74715;SDS011;63234;37.558;127.058;2022-09-09T03:49:45;4.18;;;2.65;;
74715;SDS011;63234;37.558;127.058;2022-09-09T03:52:11;2.88;;;2.33;;
74715;SDS011;63234;37.558;127.058;2022-09-09T03:54:37;3.50;;;2.38;;
74715;SDS011;63234;37.558;127.058;2022-09-09T03:57:02;3.25;;;2.30;;
74715;SDS011;63234;37.558;127.058;2022-09-09T03:59:29;3.25;;;2.22;;
74715;SDS011;63234;37.558;127.058;2022-09-09T04:01:54;3.28;;;2.00;;
74715;SDS011;63234;37.558;127.058;2022-09-09T04:04:20;3.15;;;2.05;;
74715;SDS011;63234;37.558;127.058;2022-09-09T04:06:46;3.58;;;2.50;;
74715;SDS011;63234;37.558;127.058;2022-09-09T04:09:13;2.33;;;1.98;;
74715;SDS011;63234;37.558;127.058;2022-09-09T04:11:38;2.85;;;2.20;;
74715;SDS011;63234;37.558;127.058;2022-09-09T04:14:04;2.97;;;2.20;;
74715;SDS011;63234;37.558;127.058;2022-09-09T04:16:31;3.10;;;2.25;;
74715;SDS011;63234;37.558;127.058;2022-09-09T04:18:57;3.38;;;2.42;;
74715;SDS011;63234;37.558;127.058;2022-09-09T04:21:23;2.60;;;2.25;;
74715;SDS011;63234;37.558;127.058;2022-09-09T04:23:48;3.83;;;2.35;;
74715;SDS011;63234;37.558;127.058;2022-09-09T04:26:14;2.75;;;2.15;;
74715;SDS011;63234;37.558;127.058;2022-09-09T04:28:39;2.70;;;2.17;;
74715;SDS011;63234;37.558;127.058;2022-09-09T04:31:25;3.42;;;2.33;;
74715;SDS011;63234;37.558;127.058;2022-09-09T04:33:50;3.00;;;2.17;;
74715;SDS011;63234;37.558;127.058;2022-09-09T04:36:16;3.60;;;2.15;;
74715;SDS011;63234;37.558;127.058;2022-09-09T04:38:44;2.63;;;2.05;;
74715;SDS011;63234;37.558;127.058;2022-09-09T04:41:10;3.00;;;2.40;;
74715;SDS011;63234;37.558;127.058;2022-09-09T04:43:36;3.50;;;2.60;;
74715;SDS011;63234;37.558;127.058;2022-09-09T04:46:02;2.55;;;2.15;;
74715;SDS011;63234;37.558;127.058;2022-09-09T04:48:27;2.78;;;2.03;;
74715;SDS011;63234;37.558;127.058;2022-09-09T04:50:56;3.90;;;2.22;;
74715;SDS011;63234;37.558;127.058;2022-09-09T04:53:22;3.08;;;2.40;;
74715;SDS011;63234;37.558;127.058;2022-09-09T04:55:47;2.75;;;2.03;;
74715;SDS011;63234;37.558;127.058;2022-09-09T04:58:13;5.40;;;2.30;;
74715;SDS011;63234;37.558;127.058;2022-09-09T05:00:39;2.78;;;2.13;;
74715;SDS011;63234;37.558;127.058;2022-09-09T05:03:05;3.25;;;2.08;;
74715;SDS011;63234;37.558;127.058;2022-09-09T05:05:31;2.85;;;2.20;;
74715;SDS011;63234;37.558;127.058;2022-09-09T05:08:01;2.70;;;2.10;;
74715;SDS011;63234;37.558;127.058;2022-09-09T05:10:28;2.53;;;2.15;;
74715;SDS011;63234;37.558;127.058;2022-09-09T05:12:53;2.80;;;2.30;;
74715;SDS011;63234;37.558;127.058;2022-09-09T05:15:19;3.25;;;2.00;;
74715;SDS011;63234;37.558;127.058;2022-09-09T05:17:45;3.17;;;1.90;;
74715;SDS011;63234;37.558;127.058;2022-09-09T05:20:11;3.13;;;2.20;;
74715;SDS011;63234;37.558;127.058;2022-09-09T05:22:37;3.65;;;2.13;;
74715;SDS011;63234;37.558;127.058;2022-09-09T05:25:02;2.42;;;1.85;;
74715;SDS011;63234;37.558;127.058;2022-09-09T05:27:28;3.00;;;2.20;;
74715;SDS011;63234;37.558;127.058;2022-09-09T05:29:56;3.22;;;1.95;;
74715;SDS011;63234;37.558;127.058;2022-09-09T05:32:22;2.88;;;2.25;;
74715;SDS011;63234;37.558;127.058;2022-09-09T05:34:47;3.38;;;2.13;;
74715;SDS011;63234;37.558;127.058;2022-09-09T05:37:13;3.58;;;2.20;;
74715;SDS011;63234;37.558;127.058;2022-09-09T05:39:38;3.47;;;1.92;;
74715;SDS011;63234;37.558;127.058;2022-09-09T05:42:04;2.90;;;2.28;;
74715;SDS011;63234;37.558;127.058;2022-09-09T05:44:30;3.03;;;2.28;;
74715;SDS011;63234;37.558;127.058;2022-09-09T05:46:55;2.67;;;2.08;;
74715;SDS011;63234;37.558;127.058;2022-09-09T05:49:20;2.88;;;2.15;;
74715;SDS011;63234;37.558;127.058;2022-09-09T05:51:46;2.50;;;2.17;;
74715;SDS011;63234;37.558;127.058;2022-09-09T05:54:12;2.67;;;1.85;;
74715;SDS011;63234;37.558;127.058;2022-09-09T05:56:40;2.40;;;2.20;;
74715;SDS011;63234;37.558;127.058;2022-09-09T05:59:06;3.40;;;1.92;;
74715;SDS011;63234;37.558;127.058;2022-09-09T06:01:32;2.83;;;2.00;;
74715;SDS011;63234;37.558;127.058;2022-09-09T06:03:59;3.45;;;2.13;;
74715;SDS011;63234;37.558;127.058;2022-09-09T06:06:25;2.55;;;2.10;;
74715;SDS011;63234;37.558;127.058;2022-09-09T06:08:56;3.20;;;2.15;;
74715;SDS011;63234;37.558;127.058;2022-09-09T06:11:26;2.67;;;2.30;;
74715;SDS011;63234;37.558;127.058;2022-09-09T06:13:56;3.00;;;2.22;;
74715;SDS011;63234;37.558;127.058;2022-09-09T06:16:22;2.53;;;2.00;;
74715;SDS011;63234;37.558;127.058;2022-09-09T06:18:49;2.70;;;2.20;;
74715;SDS011;63234;37.558;127.058;2022-09-09T06:21:17;3.05;;;2.22;;
74715;SDS011;63234;37.558;127.058;2022-09-09T06:23:43;3.25;;;2.28;;
74715;SDS011;63234;37.558;127.058;2022-09-09T06:26:10;3.30;;;1.88;;
74715;SDS011;63234;37.558;127.058;2022-09-09T06:28:37;3.15;;;2.35;;
74715;SDS011;63234;37.558;127.058;2022-09-09T06:31:04;2.45;;;1.90;;
74715;SDS011;63234;37.558;127.058;2022-09-09T06:33:32;2.72;;;1.90;;
74715;SDS011;63234;37.558;127.058;2022-09-09T06:36:00;2.50;;;1.95;;
74715;SDS011;63234;37.558;127.058;2022-09-09T06:38:26;2.53;;;1.90;;
74715;SDS011;63234;37.558;127.058;2022-09-09T06:40:56;2.63;;;1.98;;
74715;SDS011;63234;37.558;127.058;2022-09-09T06:43:23;2.70;;;2.00;;
74715;SDS011;63234;37.558;127.058;2022-09-09T06:45:59;2.65;;;2.10;;
74715;SDS011;63234;37.558;127.058;2022-09-09T06:48:30;2.42;;;1.98;;
74715;SDS011;63234;37.558;127.058;2022-09-09T06:53:32;2.97;;;2.10;;
74715;SDS011;63234;37.558;127.058;2022-09-09T06:58:39;4.45;;;2.10;;
74715;SDS011;63234;37.558;127.058;2022-09-09T07:01:09;3.83;;;2.13;;
74715;SDS011;63234;37.558;127.058;2022-09-09T07:03:39;4.22;;;2.10;;
74715;SDS011;63234;37.558;127.058;2022-09-09T07:06:06;3.60;;;1.90;;
74715;SDS011;63234;37.558;127.058;2022-09-09T07:08:32;3.53;;;1.80;;
74715;SDS011;63234;37.558;127.058;2022-09-09T07:11:05;3.95;;;2.28;;
74715;SDS011;63234;37.558;127.058;2022-09-09T07:13:32;4.82;;;1.73;;
74715;SDS011;63234;37.558;127.058;2022-09-09T07:16:05;4.28;;;2.10;;
74715;SDS011;63234;37.558;127.058;2022-09-09T07:18:35;5.55;;;1.90;;
74715;SDS011;63234;37.558;127.058;2022-09-09T07:21:01;3.65;;;2.00;;
74715;SDS011;63234;37.558;127.058;2022-09-09T07:23:29;7.22;;;1.92;;
74715;SDS011;63234;37.558;127.058;2022-09-09T07:25:56;3.42;;;1.83;;
74715;SDS011;63234;37.558;127.058;2022-09-09T07:28:22;4.70;;;2.15;;
74715;SDS011;63234;37.558;127.058;2022-09-09T07:30:57;5.70;;;1.92;;
74715;SDS011;63234;37.558;127.058;2022-09-09T07:33:28;8.48;;;1.98;;
74715;SDS011;63234;37.558;127.058;2022-09-09T07:36:05;2.78;;;1.58;;
74715;SDS011;63234;37.558;127.058;2022-09-09T07:38:40;3.80;;;1.88;;
74715;SDS011;63234;37.558;127.058;2022-09-09T07:41:09;9.30;;;2.08;;
74715;SDS011;63234;37.558;127.058;2022-09-09T07:43:39;4.15;;;1.70;;
74715;SDS011;63234;37.558;127.058;2022-09-09T07:46:05;4.68;;;1.92;;
74715;SDS011;63234;37.558;127.058;2022-09-09T07:48:31;5.15;;;1.80;;
74715;SDS011;63234;37.558;127.058;2022-09-09T07:51:04;4.50;;;1.98;;
74715;SDS011;63234;37.558;127.058;2022-09-09T07:53:30;5.15;;;1.92;;
74715;SDS011;63234;37.558;127.058;2022-09-09T07:56:01;8.00;;;1.98;;
74715;SDS011;63234;37.558;127.058;2022-09-09T07:58:28;6.55;;;1.67;;
74715;SDS011;63234;37.558;127.058;2022-09-09T08:00:53;4.07;;;1.65;;
74715;SDS011;63234;37.558;127.058;2022-09-09T08:03:19;4.43;;;1.73;;
74715;SDS011;63234;37.558;127.058;2022-09-09T08:05:46;3.13;;;1.60;;
74715;SDS011;63234;37.558;127.058;2022-09-09T08:08:12;4.65;;;1.70;;
74715;SDS011;63234;37.558;127.058;2022-09-09T08:10:37;5.40;;;1.75;;
74715;SDS011;63234;37.558;127.058;2022-09-09T08:13:03;4.57;;;1.80;;
74715;SDS011;63234;37.558;127.058;2022-09-09T08:15:28;5.10;;;1.50;;
74715;SDS011;63234;37.558;127.058;2022-09-09T08:17:56;5.20;;;1.67;;
74715;SDS011;63234;37.558;127.058;2022-09-09T08:20:21;4.45;;;1.65;;
74715;SDS011;63234;37.558;127.058;2022-09-09T08:22:48;2.22;;;1.90;;
74715;SDS011;63234;37.558;127.058;2022-09-09T08:25:14;3.40;;;1.70;;
74715;SDS011;63234;37.558;127.058;2022-09-09T08:27:40;2.80;;;1.75;;
74715;SDS011;63234;37.558;127.058;2022-09-09T08:30:05;2.63;;;1.67;;
74715;SDS011;63234;37.558;127.058;2022-09-09T08:32:31;3.22;;;1.70;;
74715;SDS011;63234;37.558;127.058;2022-09-09T08:36:21;2.80;;;1.58;;
74715;SDS011;63234;37.558;127.058;2022-09-09T08:38:49;4.20;;;1.80;;
74715;SDS011;63234;37.558;127.058;2022-09-09T08:49:37;3.10;;;1.70;;
74715;SDS011;63234;37.558;127.058;2022-09-09T08:52:09;2.65;;;1.40;;
74715;SDS011;63234;37.558;127.058;2022-09-09T08:54:40;4.25;;;1.60;;
74715;SDS011;63234;37.558;127.058;2022-09-09T08:57:07;3.95;;;1.50;;
74715;SDS011;63234;37.558;127.058;2022-09-09T08:59:38;4.68;;;1.58;;
74715;SDS011;63234;37.558;127.058;2022-09-09T09:02:26;5.03;;;1.63;;
74715;SDS011;63234;37.558;127.058;2022-09-09T09:04:58;4.68;;;1.42;;
74715;SDS011;63234;37.558;127.058;2022-09-09T09:12:55;7.93;;;1.85;;
74715;SDS011;63234;37.558;127.058;2022-09-09T09:15:25;5.72;;;1.70;;
74715;SDS011;63234;37.558;127.058;2022-09-09T09:17:55;3.53;;;1.63;;
74715;SDS011;63234;37.558;127.058;2022-09-09T09:20:23;4.38;;;1.33;;
74715;SDS011;63234;37.558;127.058;2022-09-09T09:23:00;3.38;;;1.55;;
74715;SDS011;63234;37.558;127.058;2022-09-09T09:25:33;2.28;;;1.42;;
